sensor_id;sensor_type;location;lat;lon;timestamp;temperature;humidity
64689;DHT22;51114;46.070;14.492;2022-07-04T00:00:17;22.90;99.90
64689;DHT22;51114;46.070;14.492;2022-07-04T00:02:44;22.60;99.90
64689;DHT22;51114;46.070;14.492;2022-07-04T00:05:11;22.80;99.90
64689;DHT22;51114;46.070;14.492;2022-07-04T00:07:42;23.00;99.90
64689;DHT22;51114;46.070;14.492;2022-07-04T00:10:09;23.10;99.90
64689;DHT22;51114;46.070;14.492;2022-07-04T00:12:35;23.20;99.90
64689;DHT22;51114;46.070;14.492;2022-07-04T00:15:03;23.20;99.90
64689;DHT22;51114;46.070;14.492;2022-07-04T00:17:29;23.00;99.90
64689;DHT22;51114;46.070;14.492;2022-07-04T00:19:54;23.20;99.90
64689;DHT22;51114;46.070;14.492;2022-07-04T00:22:20;23.20;99.90
64689;DHT22;51114;46.070;14.492;2022-07-04T00:24:46;23.30;99.90
64689;DHT22;51114;46.070;14.492;2022-07-04T00:27:11;23.00;99.90
64689;DHT22;51114;46.070;14.492;2022-07-04T00:29:37;22.40;99.90
64689;DHT22;51114;46.070;14.492;2022-07-04T00:32:11;22.10;99.90
64689;DHT22;51114;46.070;14.492;2022-07-04T00:34:37;22.30;99.90
64689;DHT22;51114;46.070;14.492;2022-07-04T00:37:02;22.50;99.90
64689;DHT22;51114;46.070;14.492;2022-07-04T00:39:28;22.70;99.90
64689;DHT22;51114;46.070;14.492;2022-07-04T00:41:54;22.50;99.90
64689;DHT22;51114;46.070;14.492;2022-07-04T00:44:20;22.40;99.90
64689;DHT22;51114;46.070;14.492;2022-07-04T00:46:46;22.10;99.90
64689;DHT22;51114;46.070;14.492;2022-07-04T00:49:14;22.00;99.90
64689;DHT22;51114;46.070;14.492;2022-07-04T00:51:41;22.30;99.90
64689;DHT22;51114;46.070;14.492;2022-07-04T00:54:09;22.60;99.90
64689;DHT22;51114;46.070;14.492;2022-07-04T00:56:37;22.60;99.90
64689;DHT22;51114;46.070;14.492;2022-07-04T00:59:03;22.50;99.90
64689;DHT22;51114;46.070;14.492;2022-07-04T01:01:29;22.30;99.90
64689;DHT22;51114;46.070;14.492;2022-07-04T01:03:56;22.70;99.90
64689;DHT22;51114;46.070;14.492;2022-07-04T01:06:22;22.80;99.90
64689;DHT22;51114;46.070;14.492;2022-07-04T01:08:48;22.90;99.90
64689;DHT22;51114;46.070;14.492;2022-07-04T01:11:14;23.00;99.90
64689;DHT22;51114;46.070;14.492;2022-07-04T01:13:41;23.10;99.90
64689;DHT22;51114;46.070;14.492;2022-07-04T01:16:08;23.20;99.90
64689;DHT22;51114;46.070;14.492;2022-07-04T01:18:34;23.20;99.90
64689;DHT22;51114;46.070;14.492;2022-07-04T01:21:00;23.20;99.90
64689;DHT22;51114;46.070;14.492;2022-07-04T01:23:26;23.10;99.90
64689;DHT22;51114;46.070;14.492;2022-07-04T01:25:52;23.10;99.90
64689;DHT22;51114;46.070;14.492;2022-07-04T01:28:22;23.00;99.90
64689;DHT22;51114;46.070;14.492;2022-07-04T01:30:48;23.00;99.90
64689;DHT22;51114;46.070;14.492;2022-07-04T01:33:14;23.00;99.90
64689;DHT22;51114;46.070;14.492;2022-07-04T01:35:40;22.90;99.90
64689;DHT22;51114;46.070;14.492;2022-07-04T01:38:06;22.90;99.90
64689;DHT22;51114;46.070;14.492;2022-07-04T01:40:32;22.80;99.90
64689;DHT22;51114;46.070;14.492;2022-07-04T01:42:58;22.80;99.90
64689;DHT22;51114;46.070;14.492;2022-07-04T01:45:26;22.70;99.90
64689;DHT22;51114;46.070;14.492;2022-07-04T01:47:52;22.70;99.90
64689;DHT22;51114;46.070;14.492;2022-07-04T01:50:18;22.60;99.90
64689;DHT22;51114;46.070;14.492;2022-07-04T01:52:45;22.60;99.90
64689;DHT22;51114;46.070;14.492;2022-07-04T01:55:11;22.60;99.90
64689;DHT22;51114;46.070;14.492;2022-07-04T02:00:08;22.50;99.90
64689;DHT22;51114;46.070;14.492;2022-07-04T02:02:52;22.50;99.90
64689;DHT22;51114;46.070;14.492;2022-07-04T02:05:18;22.40;99.90
64689;DHT22;51114;46.070;14.492;2022-07-04T02:07:44;22.40;99.90
64689;DHT22;51114;46.070;14.492;2022-07-04T02:10:10;22.30;99.90
64689;DHT22;51114;46.070;14.492;2022-07-04T02:12:36;21.90;99.90
64689;DHT22;51114;46.070;14.492;2022-07-04T02:15:21;21.80;99.90
64689;DHT22;51114;46.070;14.492;2022-07-04T02:17:47;22.00;99.90
64689;DHT22;51114;46.070;14.492;2022-07-04T02:20:13;22.10;99.90
64689;DHT22;51114;46.070;14.492;2022-07-04T02:22:39;21.60;99.90
64689;DHT22;51114;46.070;14.492;2022-07-04T02:25:05;21.40;99.90
64689;DHT22;51114;46.070;14.492;2022-07-04T02:27:31;21.70;99.90
64689;DHT22;51114;46.070;14.492;2022-07-04T02:29:57;22.00;99.90
64689;DHT22;51114;46.070;14.492;2022-07-04T02:32:23;22.00;99.90
64689;DHT22;51114;46.070;14.492;2022-07-04T02:34:49;22.00;99.90
64689;DHT22;51114;46.070;14.492;2022-07-04T02:37:15;22.00;99.90
64689;DHT22;51114;46.070;14.492;2022-07-04T02:39:40;22.10;99.90
64689;DHT22;51114;46.070;14.492;2022-07-04T02:42:06;22.20;99.90
64689;DHT22;51114;46.070;14.492;2022-07-04T02:44:32;22.10;99.90
64689;DHT22;51114;46.070;14.492;2022-07-04T02:46:57;22.00;99.90
64689;DHT22;51114;46.070;14.492;2022-07-04T02:49:24;22.00;99.90
64689;DHT22;51114;46.070;14.492;2022-07-04T02:51:49;21.90;99.90
64689;DHT22;51114;46.070;14.492;2022-07-04T02:54:15;21.90;99.90
64689;DHT22;51114;46.070;14.492;2022-07-04T02:56:41;21.90;99.90
64689;DHT22;51114;46.070;14.492;2022-07-04T02:59:07;21.90;99.90
64689;DHT22;51114;46.070;14.492;2022-07-04T03:01:33;21.80;99.90
64689;DHT22;51114;46.070;14.492;2022-07-04T03:03:59;21.80;99.90
64689;DHT22;51114;46.070;14.492;2022-07-04T03:06:25;21.70;99.90
64689;DHT22;51114;46.070;14.492;2022-07-04T03:08:50;21.70;99.90
64689;DHT22;51114;46.070;14.492;2022-07-04T03:11:18;21.70;99.90
64689;DHT22;51114;46.070;14.492;2022-07-04T03:13:44;21.60;99.90
64689;DHT22;51114;46.070;14.492;2022-07-04T03:16:09;21.60;99.90
64689;DHT22;51114;46.070;14.492;2022-07-04T03:18:35;21.60;99.90
64689;DHT22;51114;46.070;14.492;2022-07-04T03:21:01;21.60;99.90
64689;DHT22;51114;46.070;14.492;2022-07-04T03:23:30;21.50;99.90
64689;DHT22;51114;46.070;14.492;2022-07-04T03:25:56;21.50;99.90
64689;DHT22;51114;46.070;14.492;2022-07-04T03:28:22;21.60;99.90
64689;DHT22;51114;46.070;14.492;2022-07-04T03:30:47;21.50;99.90
64689;DHT22;51114;46.070;14.492;2022-07-04T03:33:13;21.50;99.90
64689;DHT22;51114;46.070;14.492;2022-07-04T03:35:38;21.50;99.90
64689;DHT22;51114;46.070;14.492;2022-07-04T03:38:04;21.50;99.90
64689;DHT22;51114;46.070;14.492;2022-07-04T03:40:30;21.50;99.90
64689;DHT22;51114;46.070;14.492;2022-07-04T03:42:57;21.60;99.90
64689;DHT22;51114;46.070;14.492;2022-07-04T03:45:24;21.60;99.90
64689;DHT22;51114;46.070;14.492;2022-07-04T03:47:50;21.60;99.90
64689;DHT22;51114;46.070;14.492;2022-07-04T03:50:16;21.50;99.90
64689;DHT22;51114;46.070;14.492;2022-07-04T03:52:42;21.60;99.90
64689;DHT22;51114;46.070;14.492;2022-07-04T03:55:08;21.50;99.90
64689;DHT22;51114;46.070;14.492;2022-07-04T03:57:34;21.50;99.90
64689;DHT22;51114;46.070;14.492;2022-07-04T03:59:59;21.60;99.90
64689;DHT22;51114;46.070;14.492;2022-07-04T04:02:28;21.70;99.90
64689;DHT22;51114;46.070;14.492;2022-07-04T04:04:53;21.70;99.90
64689;DHT22;51114;46.070;14.492;2022-07-04T04:07:37;21.80;99.90
64689;DHT22;51114;46.070;14.492;2022-07-04T04:10:03;21.80;99.90
64689;DHT22;51114;46.070;14.492;2022-07-04T04:12:29;21.80;99.90
64689;DHT22;51114;46.070;14.492;2022-07-04T04:14:57;21.80;99.90
64689;DHT22;51114;46.070;14.492;2022-07-04T04:17:23;22.00;99.90
64689;DHT22;51114;46.070;14.492;2022-07-04T04:19:48;22.10;99.90
64689;DHT22;51114;46.070;14.492;2022-07-04T04:22:14;22.10;99.90
64689;DHT22;51114;46.070;14.492;2022-07-04T04:24:40;22.00;99.90
64689;DHT22;51114;46.070;14.492;2022-07-04T04:27:06;21.80;99.90
64689;DHT22;51114;46.070;14.492;2022-07-04T04:29:32;22.00;99.90
64689;DHT22;51114;46.070;14.492;2022-07-04T04:31:57;22.10;99.90
64689;DHT22;51114;46.070;14.492;2022-07-04T04:34:23;22.00;99.90
64689;DHT22;51114;46.070;14.492;2022-07-04T04:36:48;21.50;99.90
64689;DHT22;51114;46.070;14.492;2022-07-04T04:39:14;21.30;99.90
64689;DHT22;51114;46.070;14.492;2022-07-04T04:41:40;21.40;99.90
64689;DHT22;51114;46.070;14.492;2022-07-04T04:44:05;21.20;99.90
64689;DHT22;51114;46.070;14.492;2022-07-04T04:46:32;21.10;99.90
64689;DHT22;51114;46.070;14.492;2022-07-04T04:48:58;21.10;99.90
64689;DHT22;51114;46.070;14.492;2022-07-04T04:51:23;21.20;99.90
64689;DHT22;51114;46.070;14.492;2022-07-04T04:53:49;21.20;99.90
64689;DHT22;51114;46.070;14.492;2022-07-04T04:56:14;21.40;99.90
64689;DHT22;51114;46.070;14.492;2022-07-04T04:58:40;21.60;99.90
64689;DHT22;51114;46.070;14.492;2022-07-04T05:01:06;21.70;99.90
64689;DHT22;51114;46.070;14.492;2022-07-04T05:03:32;21.50;99.90
64689;DHT22;51114;46.070;14.492;2022-07-04T05:05:57;21.50;99.90
64689;DHT22;51114;46.070;14.492;2022-07-04T05:08:23;21.80;99.90
64689;DHT22;51114;46.070;14.492;2022-07-04T05:10:53;22.00;99.90
64689;DHT22;51114;46.070;14.492;2022-07-04T05:13:19;22.00;99.90
64689;DHT22;51114;46.070;14.492;2022-07-04T05:15:45;21.60;99.90
64689;DHT22;51114;46.070;14.492;2022-07-04T05:18:12;22.00;99.90
64689;DHT22;51114;46.070;14.492;2022-07-04T05:20:38;22.10;99.90
64689;DHT22;51114;46.070;14.492;2022-07-04T05:23:05;22.00;99.90
64689;DHT22;51114;46.070;14.492;2022-07-04T05:25:31;21.60;99.90
64689;DHT22;51114;46.070;14.492;2022-07-04T05:27:57;21.60;99.90
64689;DHT22;51114;46.070;14.492;2022-07-04T05:30:23;22.00;99.90
64689;DHT22;51114;46.070;14.492;2022-07-04T05:32:49;22.30;99.90
64689;DHT22;51114;46.070;14.492;2022-07-04T05:35:14;22.60;99.90
64689;DHT22;51114;46.070;14.492;2022-07-04T05:37:40;22.70;99.90
64689;DHT22;51114;46.070;14.492;2022-07-04T05:40:06;22.90;99.90
64689;DHT22;51114;46.070;14.492;2022-07-04T05:42:34;22.60;99.90
64689;DHT22;51114;46.070;14.492;2022-07-04T05:45:00;22.70;99.90
64689;DHT22;51114;46.070;14.492;2022-07-04T05:47:25;23.00;99.90
64689;DHT22;51114;46.070;14.492;2022-07-04T05:49:52;23.10;99.90
64689;DHT22;51114;46.070;14.492;2022-07-04T05:52:18;23.00;99.90
64689;DHT22;51114;46.070;14.492;2022-07-04T05:54:43;22.80;99.90
64689;DHT22;51114;46.070;14.492;2022-07-04T05:57:09;22.70;99.90
64689;DHT22;51114;46.070;14.492;2022-07-04T05:59:35;22.90;99.90
64689;DHT22;51114;46.070;14.492;2022-07-04T06:02:00;22.70;99.90
64689;DHT22;51114;46.070;14.492;2022-07-04T06:04:26;22.70;99.90
64689;DHT22;51114;46.070;14.492;2022-07-04T06:06:52;23.10;99.90
64689;DHT22;51114;46.070;14.492;2022-07-04T06:09:18;23.20;99.90
64689;DHT22;51114;46.070;14.492;2022-07-04T06:11:44;23.20;99.90
64689;DHT22;51114;46.070;14.492;2022-07-04T06:14:09;23.40;99.90
64689;DHT22;51114;46.070;14.492;2022-07-04T06:16:35;23.70;99.90
64689;DHT22;51114;46.070;14.492;2022-07-04T06:19:00;23.60;99.90
64689;DHT22;51114;46.070;14.492;2022-07-04T06:21:26;23.70;99.90
64689;DHT22;51114;46.070;14.492;2022-07-04T06:23:52;23.70;99.90
64689;DHT22;51114;46.070;14.492;2022-07-04T06:26:18;23.50;99.90
64689;DHT22;51114;46.070;14.492;2022-07-04T06:28:43;23.50;99.90
64689;DHT22;51114;46.070;14.492;2022-07-04T06:31:11;23.50;99.90
64689;DHT22;51114;46.070;14.492;2022-07-04T06:33:36;23.60;99.90
64689;DHT22;51114;46.070;14.492;2022-07-04T06:36:22;23.50;99.90
64689;DHT22;51114;46.070;14.492;2022-07-04T06:38:48;23.70;99.90
64689;DHT22;51114;46.070;14.492;2022-07-04T06:41:14;23.70;99.90
64689;DHT22;51114;46.070;14.492;2022-07-04T06:43:40;23.80;99.90
64689;DHT22;51114;46.070;14.492;2022-07-04T06:46:05;24.00;99.90
64689;DHT22;51114;46.070;14.492;2022-07-04T06:48:31;24.20;99.90
64689;DHT22;51114;46.070;14.492;2022-07-04T06:50:57;24.50;99.90
64689;DHT22;51114;46.070;14.492;2022-07-04T06:53:23;24.60;99.90
64689;DHT22;51114;46.070;14.492;2022-07-04T06:55:48;24.60;99.90
64689;DHT22;51114;46.070;14.492;2022-07-04T06:58:14;24.60;99.90
64689;DHT22;51114;46.070;14.492;2022-07-04T07:00:40;24.80;99.90
64689;DHT22;51114;46.070;14.492;2022-07-04T07:03:07;24.90;99.90
64689;DHT22;51114;46.070;14.492;2022-07-04T07:05:33;25.20;99.90
64689;DHT22;51114;46.070;14.492;2022-07-04T07:08:03;24.90;99.90
64689;DHT22;51114;46.070;14.492;2022-07-04T07:10:28;24.90;99.90
64689;DHT22;51114;46.070;14.492;2022-07-04T07:12:54;25.10;99.90
64689;DHT22;51114;46.070;14.492;2022-07-04T07:15:20;25.20;99.90
64689;DHT22;51114;46.070;14.492;2022-07-04T07:17:46;25.40;99.90
64689;DHT22;51114;46.070;14.492;2022-07-04T07:20:11;25.40;99.90
64689;DHT22;51114;46.070;14.492;2022-07-04T07:22:39;25.20;99.90
64689;DHT22;51114;46.070;14.492;2022-07-04T07:25:05;25.10;99.90
64689;DHT22;51114;46.070;14.492;2022-07-04T07:27:30;24.70;99.90
64689;DHT22;51114;46.070;14.492;2022-07-04T07:29:56;25.00;99.90
64689;DHT22;51114;46.070;14.492;2022-07-04T07:32:22;25.40;99.90
64689;DHT22;51114;46.070;14.492;2022-07-04T07:34:47;25.60;99.90
64689;DHT22;51114;46.070;14.492;2022-07-04T07:37:13;25.40;99.90
64689;DHT22;51114;46.070;14.492;2022-07-04T07:39:39;25.80;99.90
64689;DHT22;51114;46.070;14.492;2022-07-04T07:42:04;25.80;99.90
64689;DHT22;51114;46.070;14.492;2022-07-04T07:44:30;26.50;99.90
64689;DHT22;51114;46.070;14.492;2022-07-04T07:46:55;27.30;99.90
64689;DHT22;51114;46.070;14.492;2022-07-04T07:49:21;27.80;99.90
64689;DHT22;51114;46.070;14.492;2022-07-04T07:51:47;27.60;99.90
64689;DHT22;51114;46.070;14.492;2022-07-04T07:54:12;27.50;99.90
64689;DHT22;51114;46.070;14.492;2022-07-04T07:56:39;27.70;99.90
64689;DHT22;51114;46.070;14.492;2022-07-04T07:59:05;27.70;99.90
64689;DHT22;51114;46.070;14.492;2022-07-04T08:01:31;28.30;99.90
64689;DHT22;51114;46.070;14.492;2022-07-04T08:03:57;28.30;99.90
64689;DHT22;51114;46.070;14.492;2022-07-04T08:06:41;28.00;99.90
64689;DHT22;51114;46.070;14.492;2022-07-04T08:09:07;27.90;99.90
64689;DHT22;51114;46.070;14.492;2022-07-04T08:11:33;27.60;99.90
64689;DHT22;51114;46.070;14.492;2022-07-04T08:13:58;29.10;99.90
64689;DHT22;51114;46.070;14.492;2022-07-04T08:16:24;29.60;99.90
64689;DHT22;51114;46.070;14.492;2022-07-04T08:18:50;29.50;99.90
64689;DHT22;51114;46.070;14.492;2022-07-04T08:21:16;29.30;99.90
64689;DHT22;51114;46.070;14.492;2022-07-04T08:23:41;28.90;99.90
64689;DHT22;51114;46.070;14.492;2022-07-04T08:26:07;28.90;99.90
64689;DHT22;51114;46.070;14.492;2022-07-04T08:28:33;28.20;99.90
64689;DHT22;51114;46.070;14.492;2022-07-04T08:30:59;28.10;99.90
64689;DHT22;51114;46.070;14.492;2022-07-04T08:33:25;28.20;99.90
64689;DHT22;51114;46.070;14.492;2022-07-04T08:35:51;28.60;99.90
64689;DHT22;51114;46.070;14.492;2022-07-04T08:38:18;28.80;99.90
64689;DHT22;51114;46.070;14.492;2022-07-04T08:40:43;28.70;99.90
64689;DHT22;51114;46.070;14.492;2022-07-04T08:43:13;28.80;99.90
64689;DHT22;51114;46.070;14.492;2022-07-04T08:45:39;28.60;98.70
64689;DHT22;51114;46.070;14.492;2022-07-04T08:48:07;28.50;98.60
64689;DHT22;51114;46.070;14.492;2022-07-04T08:50:44;28.50;99.20
64689;DHT22;51114;46.070;14.492;2022-07-04T08:53:15;28.30;99.50
64689;DHT22;51114;46.070;14.492;2022-07-04T08:55:41;28.20;99.10
64689;DHT22;51114;46.070;14.492;2022-07-04T08:58:27;28.20;99.40
64689;DHT22;51114;46.070;14.492;2022-07-04T09:00:58;28.30;99.30
64689;DHT22;51114;46.070;14.492;2022-07-04T09:03:25;28.70;99.00
64689;DHT22;51114;46.070;14.492;2022-07-04T09:05:51;29.30;97.80
64689;DHT22;51114;46.070;14.492;2022-07-04T09:08:18;29.70;96.30
64689;DHT22;51114;46.070;14.492;2022-07-04T09:10:44;29.60;96.40
64689;DHT22;51114;46.070;14.492;2022-07-04T09:13:10;29.40;96.00
64689;DHT22;51114;46.070;14.492;2022-07-04T09:15:37;29.30;95.60
64689;DHT22;51114;46.070;14.492;2022-07-04T09:18:03;29.70;94.80
64689;DHT22;51114;46.070;14.492;2022-07-04T09:20:30;29.40;94.80
64689;DHT22;51114;46.070;14.492;2022-07-04T09:22:56;29.40;95.30
64689;DHT22;51114;46.070;14.492;2022-07-04T09:25:24;29.30;95.50
64689;DHT22;51114;46.070;14.492;2022-07-04T09:27:55;29.30;95.20
64689;DHT22;51114;46.070;14.492;2022-07-04T09:30:26;29.70;94.60
64689;DHT22;51114;46.070;14.492;2022-07-04T09:32:53;29.90;94.30
64689;DHT22;51114;46.070;14.492;2022-07-04T09:35:27;30.10;93.40
64689;DHT22;51114;46.070;14.492;2022-07-04T09:37:58;30.30;92.90
64689;DHT22;51114;46.070;14.492;2022-07-04T09:40:35;30.30;93.10
64689;DHT22;51114;46.070;14.492;2022-07-04T09:43:24;30.30;89.30
64689;DHT22;51114;46.070;14.492;2022-07-04T09:45:58;30.30;89.40
64689;DHT22;51114;46.070;14.492;2022-07-04T09:48:26;30.30;90.20
64689;DHT22;51114;46.070;14.492;2022-07-04T09:50:52;30.30;91.00
64689;DHT22;51114;46.070;14.492;2022-07-04T09:53:18;30.30;91.20
64689;DHT22;51114;46.070;14.492;2022-07-04T09:55:43;30.50;90.60
64689;DHT22;51114;46.070;14.492;2022-07-04T09:58:12;30.70;90.30
64689;DHT22;51114;46.070;14.492;2022-07-04T10:00:40;30.80;90.30
64689;DHT22;51114;46.070;14.492;2022-07-04T10:03:29;30.90;90.70
64689;DHT22;51114;46.070;14.492;2022-07-04T10:06:10;31.00;90.60
64689;DHT22;51114;46.070;14.492;2022-07-04T10:08:38;31.00;90.80
64689;DHT22;51114;46.070;14.492;2022-07-04T10:11:05;31.00;90.60
64689;DHT22;51114;46.070;14.492;2022-07-04T10:13:31;31.10;90.60
64689;DHT22;51114;46.070;14.492;2022-07-04T10:15:58;31.20;90.90
64689;DHT22;51114;46.070;14.492;2022-07-04T10:18:24;31.40;89.80
64689;DHT22;51114;46.070;14.492;2022-07-04T10:20:51;31.40;90.10
64689;DHT22;51114;46.070;14.492;2022-07-04T10:23:18;31.30;90.20
64689;DHT22;51114;46.070;14.492;2022-07-04T10:25:48;31.40;89.10
64689;DHT22;51114;46.070;14.492;2022-07-04T10:28:14;31.10;90.00
64689;DHT22;51114;46.070;14.492;2022-07-04T10:30:41;31.20;89.80
64689;DHT22;51114;46.070;14.492;2022-07-04T10:33:11;31.50;87.50
64689;DHT22;51114;46.070;14.492;2022-07-04T10:35:57;31.50;87.20
64689;DHT22;51114;46.070;14.492;2022-07-04T10:38:34;31.60;87.90
64689;DHT22;51114;46.070;14.492;2022-07-04T10:41:06;31.70;86.60
64689;DHT22;51114;46.070;14.492;2022-07-04T10:54:41;31.90;84.40
64689;DHT22;51114;46.070;14.492;2022-07-04T11:02:31;31.90;83.90
64689;DHT22;51114;46.070;14.492;2022-07-04T11:18:10;32.20;79.60
64689;DHT22;51114;46.070;14.492;2022-07-04T11:20:38;32.20;77.90
64689;DHT22;51114;46.070;14.492;2022-07-04T11:23:12;32.10;77.90
64689;DHT22;51114;46.070;14.492;2022-07-04T11:25:39;32.00;76.80
64689;DHT22;51114;46.070;14.492;2022-07-04T11:28:19;32.20;78.80
64689;DHT22;51114;46.070;14.492;2022-07-04T11:30:55;32.20;78.00
64689;DHT22;51114;46.070;14.492;2022-07-04T11:33:26;32.20;76.20
64689;DHT22;51114;46.070;14.492;2022-07-04T11:36:06;32.10;77.60
64689;DHT22;51114;46.070;14.492;2022-07-04T11:38:59;32.10;79.00
64689;DHT22;51114;46.070;14.492;2022-07-04T11:44:14;32.30;77.60
64689;DHT22;51114;46.070;14.492;2022-07-04T11:47:13;32.20;78.40
64689;DHT22;51114;46.070;14.492;2022-07-04T11:49:52;32.20;77.60
64689;DHT22;51114;46.070;14.492;2022-07-04T11:52:21;32.30;78.20
64689;DHT22;51114;46.070;14.492;2022-07-04T11:54:48;32.40;78.20
64689;DHT22;51114;46.070;14.492;2022-07-04T11:57:17;32.30;76.80
64689;DHT22;51114;46.070;14.492;2022-07-04T11:59:50;32.10;78.40
64689;DHT22;51114;46.070;14.492;2022-07-04T12:02:17;31.90;78.50
64689;DHT22;51114;46.070;14.492;2022-07-04T12:04:43;31.90;78.70
64689;DHT22;51114;46.070;14.492;2022-07-04T12:07:11;32.10;79.00
64689;DHT22;51114;46.070;14.492;2022-07-04T12:09:38;32.10;78.60
64689;DHT22;51114;46.070;14.492;2022-07-04T12:12:04;32.50;80.30
64689;DHT22;51114;46.070;14.492;2022-07-04T12:14:30;32.60;78.90
64689;DHT22;51114;46.070;14.492;2022-07-04T12:17:37;32.50;79.10
64689;DHT22;51114;46.070;14.492;2022-07-04T12:20:11;32.40;80.20
64689;DHT22;51114;46.070;14.492;2022-07-04T12:22:54;32.60;80.20
64689;DHT22;51114;46.070;14.492;2022-07-04T12:25:31;32.70;79.70
64689;DHT22;51114;46.070;14.492;2022-07-04T12:28:08;32.40;78.90
64689;DHT22;51114;46.070;14.492;2022-07-04T12:30:59;32.30;78.90
64689;DHT22;51114;46.070;14.492;2022-07-04T12:33:26;32.40;78.30
64689;DHT22;51114;46.070;14.492;2022-07-04T12:35:56;32.30;80.10
64689;DHT22;51114;46.070;14.492;2022-07-04T12:38:33;32.20;81.50
64689;DHT22;51114;46.070;14.492;2022-07-04T12:41:03;32.10;81.90
64689;DHT22;51114;46.070;14.492;2022-07-04T12:46:12;31.90;83.80
64689;DHT22;51114;46.070;14.492;2022-07-04T12:48:39;31.90;83.90
64689;DHT22;51114;46.070;14.492;2022-07-04T12:51:22;32.00;84.10
64689;DHT22;51114;46.070;14.492;2022-07-04T12:53:50;32.00;83.80
64689;DHT22;51114;46.070;14.492;2022-07-04T12:59:02;32.40;84.70
64689;DHT22;51114;46.070;14.492;2022-07-04T13:01:28;32.40;84.30
64689;DHT22;51114;46.070;14.492;2022-07-04T13:03:54;32.40;85.40
64689;DHT22;51114;46.070;14.492;2022-07-04T13:06:20;32.40;85.20
64689;DHT22;51114;46.070;14.492;2022-07-04T13:08:46;32.50;85.20
64689;DHT22;51114;46.070;14.492;2022-07-04T13:11:11;32.60;84.60
64689;DHT22;51114;46.070;14.492;2022-07-04T13:13:55;32.60;85.40
64689;DHT22;51114;46.070;14.492;2022-07-04T13:16:21;32.50;86.20
64689;DHT22;51114;46.070;14.492;2022-07-04T13:18:47;32.50;86.50
64689;DHT22;51114;46.070;14.492;2022-07-04T13:21:12;32.20;86.30
64689;DHT22;51114;46.070;14.492;2022-07-04T13:23:38;32.10;86.80
64689;DHT22;51114;46.070;14.492;2022-07-04T13:26:04;32.20;85.90
64689;DHT22;51114;46.070;14.492;2022-07-04T13:28:30;32.30;86.30
64689;DHT22;51114;46.070;14.492;2022-07-04T13:30:56;32.20;84.20
64689;DHT22;51114;46.070;14.492;2022-07-04T13:33:21;32.00;83.70
64689;DHT22;51114;46.070;14.492;2022-07-04T13:35:47;31.90;84.00
64689;DHT22;51114;46.070;14.492;2022-07-04T13:38:13;31.80;84.60
64689;DHT22;51114;46.070;14.492;2022-07-04T13:40:42;31.70;84.80
64689;DHT22;51114;46.070;14.492;2022-07-04T13:43:08;31.70;85.20
64689;DHT22;51114;46.070;14.492;2022-07-04T13:45:40;31.70;85.50
64689;DHT22;51114;46.070;14.492;2022-07-04T13:48:08;31.60;85.70
64689;DHT22;51114;46.070;14.492;2022-07-04T13:50:34;31.50;86.20
64689;DHT22;51114;46.070;14.492;2022-07-04T13:53:06;31.40;86.40
64689;DHT22;51114;46.070;14.492;2022-07-04T13:55:33;31.40;87.70
64689;DHT22;51114;46.070;14.492;2022-07-04T13:58:05;30.20;96.30
64689;DHT22;51114;46.070;14.492;2022-07-04T14:00:32;29.40;99.90
64689;DHT22;51114;46.070;14.492;2022-07-04T14:02:57;28.90;99.90
64689;DHT22;51114;46.070;14.492;2022-07-04T14:05:24;28.20;99.90
64689;DHT22;51114;46.070;14.492;2022-07-04T14:07:53;28.20;99.90
64689;DHT22;51114;46.070;14.492;2022-07-04T14:10:19;27.50;99.90
64689;DHT22;51114;46.070;14.492;2022-07-04T14:12:44;27.40;99.90
64689;DHT22;51114;46.070;14.492;2022-07-04T14:15:10;27.60;99.90
64689;DHT22;51114;46.070;14.492;2022-07-04T14:17:37;28.00;99.90
64689;DHT22;51114;46.070;14.492;2022-07-04T14:20:07;28.10;99.90
64689;DHT22;51114;46.070;14.492;2022-07-04T14:22:37;28.30;99.90
64689;DHT22;51114;46.070;14.492;2022-07-04T14:25:04;28.40;99.90
64689;DHT22;51114;46.070;14.492;2022-07-04T14:27:30;28.40;99.90
64689;DHT22;51114;46.070;14.492;2022-07-04T14:29:55;28.60;99.90
64689;DHT22;51114;46.070;14.492;2022-07-04T14:32:21;28.60;99.90
64689;DHT22;51114;46.070;14.492;2022-07-04T14:34:47;28.60;99.90
64689;DHT22;51114;46.070;14.492;2022-07-04T14:37:13;28.40;99.90
64689;DHT22;51114;46.070;14.492;2022-07-04T14:39:38;28.10;99.90
64689;DHT22;51114;46.070;14.492;2022-07-04T14:42:04;28.00;99.90
64689;DHT22;51114;46.070;14.492;2022-07-04T14:44:30;28.00;99.90
64689;DHT22;51114;46.070;14.492;2022-07-04T14:46:55;27.90;99.90
64689;DHT22;51114;46.070;14.492;2022-07-04T14:49:21;27.90;99.90
64689;DHT22;51114;46.070;14.492;2022-07-04T14:51:47;28.00;99.90
64689;DHT22;51114;46.070;14.492;2022-07-04T14:54:13;28.00;99.90
64689;DHT22;51114;46.070;14.492;2022-07-04T14:56:39;28.00;99.90
64689;DHT22;51114;46.070;14.492;2022-07-04T14:59:04;28.10;99.90
64689;DHT22;51114;46.070;14.492;2022-07-04T15:01:30;28.10;99.90
64689;DHT22;51114;46.070;14.492;2022-07-04T15:03:56;28.10;99.90
64689;DHT22;51114;46.070;14.492;2022-07-04T15:06:22;28.10;99.90
64689;DHT22;51114;46.070;14.492;2022-07-04T15:08:47;28.20;99.90
64689;DHT22;51114;46.070;14.492;2022-07-04T15:11:13;28.40;99.90
64689;DHT22;51114;46.070;14.492;2022-07-04T15:13:39;28.60;99.90
64689;DHT22;51114;46.070;14.492;2022-07-04T15:16:05;28.80;99.90
64689;DHT22;51114;46.070;14.492;2022-07-04T15:18:31;29.10;99.90
64689;DHT22;51114;46.070;14.492;2022-07-04T15:20:57;29.10;99.90
64689;DHT22;51114;46.070;14.492;2022-07-04T15:23:42;29.20;99.90
64689;DHT22;51114;46.070;14.492;2022-07-04T15:26:27;29.30;99.90
64689;DHT22;51114;46.070;14.492;2022-07-04T15:28:52;29.40;99.90
64689;DHT22;51114;46.070;14.492;2022-07-04T15:31:18;29.40;99.90
64689;DHT22;51114;46.070;14.492;2022-07-04T15:33:44;29.40;99.90
64689;DHT22;51114;46.070;14.492;2022-07-04T15:36:09;29.50;99.90
64689;DHT22;51114;46.070;14.492;2022-07-04T15:38:35;29.60;99.90
64689;DHT22;51114;46.070;14.492;2022-07-04T15:41:01;29.70;99.90
64689;DHT22;51114;46.070;14.492;2022-07-04T15:43:31;29.80;99.50
64689;DHT22;51114;46.070;14.492;2022-07-04T15:45:58;29.90;99.20
64689;DHT22;51114;46.070;14.492;2022-07-04T15:48:25;29.90;98.90
64689;DHT22;51114;46.070;14.492;2022-07-04T15:50:51;29.80;99.10
64689;DHT22;51114;46.070;14.492;2022-07-04T15:53:17;29.90;99.30
64689;DHT22;51114;46.070;14.492;2022-07-04T15:55:43;30.00;98.30
64689;DHT22;51114;46.070;14.492;2022-07-04T15:58:09;30.00;98.00